createdAt,value
2023-02-16T00:01:53.008Z,5.65
2023-02-16T00:04:26.371Z,6.50
2023-02-16T00:06:54.172Z,5.47
2023-02-16T00:09:21.328Z,5.10
2023-02-16T00:12:07.420Z,5.55
2023-02-16T00:14:36.340Z,5.60
2023-02-16T00:17:04.083Z,5.45
2023-02-16T00:19:35.171Z,5.55
2023-02-16T00:22:02.440Z,5.40
2023-02-16T00:24:30.376Z,6.13
2023-02-16T00:26:58.045Z,6.22
2023-02-16T00:29:28.124Z,5.85
2023-02-16T00:31:56.466Z,5.60
2023-02-16T00:34:30.413Z,6.70
2023-02-16T00:36:58.628Z,6.38
2023-02-16T00:39:26.295Z,5.47
2023-02-16T00:41:59.394Z,5.72
2023-02-16T00:44:36.325Z,5.60
2023-02-16T00:47:25.795Z,5.87
2023-02-16T00:49:54.091Z,6.97
2023-02-16T00:52:29.682Z,6.10
2023-02-16T00:54:57.322Z,5.28
2023-02-16T00:57:25.313Z,5.32
2023-02-16T01:00:21.084Z,5.63
2023-02-16T01:02:50.610Z,5.50
2023-02-16T01:05:17.314Z,5.90
2023-02-16T01:08:05.015Z,6.00
2023-02-16T01:10:50.796Z,6.13
2023-02-16T01:13:18.246Z,5.40
2023-02-16T01:15:44.872Z,6.18
2023-02-16T01:18:16.363Z,5.63
2023-02-16T01:20:43.107Z,6.50
2023-02-16T01:23:10.033Z,6.20
2023-02-16T01:25:37.136Z,5.40
2023-02-16T01:28:24.498Z,6.15
2023-02-16T01:30:52.992Z,5.53
2023-02-16T01:33:20.836Z,5.80
2023-02-16T01:35:47.871Z,6.20
2023-02-16T01:38:27.535Z,5.80
2023-02-16T01:41:23.057Z,5.88
2023-02-16T01:43:58.450Z,5.78
2023-02-16T01:47:12.475Z,6.20
2023-02-16T01:49:39.024Z,5.45
2023-02-16T01:52:25.212Z,5.93
2023-02-16T01:55:04.458Z,6.13
2023-02-16T01:57:49.383Z,5.68
2023-02-16T02:00:27.542Z,5.30
2023-02-16T02:03:21.405Z,5.32
2023-02-16T02:05:50.202Z,5.27
2023-02-16T02:08:20.972Z,5.55
2023-02-16T02:11:00.534Z,5.80
2023-02-16T02:13:38.562Z,5.90
2023-02-16T02:16:06.172Z,5.57
2023-02-16T02:18:33.025Z,6.17
2023-02-16T02:21:49.862Z,5.50
2023-02-16T02:24:29.086Z,5.68
2023-02-16T02:27:07.619Z,5.68
2023-02-16T02:30:08.789Z,5.70
2023-02-16T02:33:00.220Z,6.00
2023-02-16T02:35:57.374Z,5.75
2023-02-16T02:38:36.828Z,6.07
2023-02-16T02:41:45.466Z,5.50
2023-02-16T02:44:15.171Z,6.03
2023-02-16T02:46:41.875Z,5.13
2023-02-16T02:49:08.466Z,5.72
2023-02-16T02:51:40.207Z,6.68
2023-02-16T02:54:30.641Z,6.13
2023-02-16T02:57:23.636Z,6.40
2023-02-16T03:00:34.255Z,5.70
2023-02-16T03:03:10.906Z,8.77
2023-02-16T03:05:40.216Z,5.43
2023-02-16T03:08:14.409Z,8.32
2023-02-16T03:11:08.590Z,7.88
2023-02-16T03:13:39.767Z,10.20
2023-02-16T03:16:17.564Z,8.27
2023-02-16T03:19:04.757Z,6.10
2023-02-16T03:21:51.669Z,6.00
2023-02-16T03:24:49.051Z,7.22
2023-02-16T03:27:39.436Z,5.97
2023-02-16T03:30:08.123Z,6.72
2023-02-16T03:32:35.089Z,6.10
2023-02-16T03:35:01.855Z,6.00
2023-02-16T03:37:28.428Z,6.40
2023-02-16T03:40:13.779Z,8.00
2023-02-16T03:42:40.332Z,6.53
2023-02-16T03:45:07.452Z,6.28
2023-02-16T03:47:34.038Z,6.05
2023-02-16T03:50:00.596Z,6.22
2023-02-16T03:52:27.136Z,6.50
2023-02-16T03:54:53.677Z,6.53
2023-02-16T03:57:20.224Z,5.95
2023-02-16T03:59:46.783Z,7.65
2023-02-16T04:02:13.411Z,6.40
2023-02-16T04:04:40.031Z,6.20
2023-02-16T04:07:06.560Z,5.82
2023-02-16T04:09:33.149Z,6.35
2023-02-16T04:12:18.211Z,6.60
2023-02-16T04:14:44.782Z,6.82
2023-02-16T04:17:11.327Z,5.93
2023-02-16T04:19:37.900Z,5.85
2023-02-16T04:22:04.459Z,7.55
2023-02-16T04:24:31.054Z,7.32
2023-02-16T04:26:57.712Z,6.68
2023-02-16T04:29:24.266Z,7.13
2023-02-16T04:31:51.033Z,6.78
2023-02-16T04:34:17.647Z,6.68
2023-02-16T04:36:44.203Z,5.85
2023-02-16T04:39:10.794Z,6.63
2023-02-16T04:41:37.359Z,6.17
2023-02-16T04:44:03.938Z,6.28
2023-02-16T04:46:30.527Z,6.43
2023-02-16T04:48:57.242Z,6.15
2023-02-16T04:51:24.101Z,6.35
2023-02-16T04:53:50.736Z,6.47
2023-02-16T04:56:17.301Z,6.35
2023-02-16T04:58:43.876Z,6.40
2023-02-16T05:01:21.811Z,6.13
2023-02-16T05:03:48.752Z,6.40
2023-02-16T05:06:15.601Z,5.93
2023-02-16T05:08:42.464Z,6.15
2023-02-16T05:11:27.755Z,6.15
2023-02-16T05:14:17.182Z,6.32
2023-02-16T05:16:44.960Z,5.88
2023-02-16T05:19:12.707Z,6.43
2023-02-16T05:21:39.540Z,6.32
2023-02-16T05:24:09.520Z,6.20
2023-02-16T05:26:37.646Z,6.55
2023-02-16T05:29:04.323Z,5.85
2023-02-16T05:31:31.316Z,6.17
2023-02-16T05:33:57.987Z,6.30
2023-02-16T05:36:24.741Z,6.10
2023-02-16T05:38:51.331Z,6.30
2023-02-16T05:41:23.820Z,6.15
2023-02-16T05:43:55.535Z,6.50
2023-02-16T05:46:23.497Z,6.07
2023-02-16T05:48:50.989Z,6.45
2023-02-16T05:51:17.983Z,6.45
2023-02-16T05:53:44.568Z,6.10
2023-02-16T05:56:11.806Z,6.00
2023-02-16T05:58:38.665Z,6.43
2023-02-16T06:01:06.267Z,5.82
2023-02-16T06:03:33.535Z,6.10
2023-02-16T06:06:02.057Z,5.95
2023-02-16T06:08:29.202Z,6.60
2023-02-16T06:10:56.163Z,6.22
2023-02-16T06:13:23.408Z,6.15
2023-02-16T06:15:55.916Z,6.68
2023-02-16T06:18:24.493Z,5.95
2023-02-16T06:20:51.398Z,5.80
2023-02-16T06:23:18.393Z,6.00
2023-02-16T06:25:48.673Z,6.32
2023-02-16T06:28:15.601Z,6.43
2023-02-16T06:30:42.690Z,6.72
2023-02-16T06:33:09.380Z,6.77
2023-02-16T06:35:35.931Z,6.13
2023-02-16T06:38:02.506Z,5.82
2023-02-16T06:40:31.475Z,6.78
2023-02-16T06:42:58.042Z,8.02
2023-02-16T06:45:24.594Z,6.47
2023-02-16T06:47:51.162Z,7.15
2023-02-16T06:50:18.043Z,8.32
2023-02-16T06:52:44.654Z,7.60
2023-02-16T06:55:11.494Z,8.32
2023-02-16T06:57:38.165Z,7.03
2023-02-16T07:00:07.220Z,6.97
2023-02-16T07:02:33.813Z,7.80
2023-02-16T07:05:00.364Z,6.68
2023-02-16T07:07:26.935Z,7.57
2023-02-16T07:09:53.478Z,6.30
2023-02-16T07:12:20.092Z,7.93
2023-02-16T07:14:46.695Z,6.78
2023-02-16T07:17:13.285Z,7.72
2023-02-16T07:19:39.891Z,8.38
2023-02-16T07:22:06.446Z,8.67
2023-02-16T07:24:33.013Z,6.43
2023-02-16T07:26:59.553Z,6.93
2023-02-16T07:29:26.118Z,7.75
2023-02-16T07:31:53.593Z,6.63
2023-02-16T07:34:20.994Z,7.30
2023-02-16T07:36:48.555Z,7.70
2023-02-16T07:39:15.112Z,8.40
2023-02-16T07:41:41.707Z,9.27
2023-02-16T07:44:08.815Z,6.50
2023-02-16T07:46:35.524Z,6.10
2023-02-16T07:49:02.082Z,6.93
2023-02-16T07:51:30.941Z,7.55
2023-02-16T07:53:59.846Z,7.57
2023-02-16T07:56:29.397Z,7.35
2023-02-16T07:58:57.251Z,6.90
2023-02-16T08:01:24.944Z,6.55
2023-02-16T08:03:51.666Z,7.20
2023-02-16T08:06:18.619Z,7.63
2023-02-16T08:08:45.661Z,6.03
2023-02-16T08:11:25.075Z,7.20
2023-02-16T08:13:52.171Z,6.80
2023-02-16T08:16:29.578Z,6.32
2023-02-16T08:18:57.707Z,9.18
2023-02-16T08:21:27.704Z,7.03
2023-02-16T08:23:58.391Z,8.23
2023-02-16T08:26:27.325Z,6.97
2023-02-16T08:28:53.975Z,6.88
2023-02-16T08:31:25.729Z,6.95
2023-02-16T08:33:53.662Z,7.35
2023-02-16T08:36:23.764Z,7.73
2023-02-16T08:38:52.220Z,7.25
2023-02-16T08:41:20.156Z,7.78
2023-02-16T08:43:47.966Z,6.85
2023-02-16T08:46:15.149Z,7.43
2023-02-16T08:48:41.871Z,7.50
2023-02-16T08:51:14.446Z,6.55
2023-02-16T08:53:41.221Z,7.00
2023-02-16T08:56:09.822Z,6.95
2023-02-16T08:58:37.512Z,6.57
2023-02-16T09:01:08.586Z,6.80
2023-02-16T09:03:36.545Z,7.68
2023-02-16T09:06:05.432Z,7.35
2023-02-16T09:08:37.564Z,7.72
2023-02-16T09:11:11.336Z,7.38
2023-02-16T09:13:39.698Z,7.00
2023-02-16T09:16:10.523Z,7.18
2023-02-16T09:18:38.018Z,7.75
2023-02-16T09:21:06.890Z,7.28
2023-02-16T09:23:35.718Z,8.68
2023-02-16T09:26:02.813Z,7.00
2023-02-16T09:28:30.764Z,7.47
2023-02-16T09:30:57.437Z,7.60
2023-02-16T09:33:24.445Z,7.75
2023-02-16T09:35:51.557Z,6.97
2023-02-16T09:38:18.657Z,6.67
2023-02-16T09:40:45.428Z,7.07
2023-02-16T09:43:42.036Z,7.07
2023-02-16T09:46:13.095Z,7.53
2023-02-16T09:48:47.260Z,7.32
2023-02-16T09:51:20.976Z,7.07
2023-02-16T09:53:59.029Z,7.70
2023-02-16T09:56:54.758Z,8.10
2023-02-16T09:59:27.214Z,8.00
2023-02-16T10:02:55.739Z,7.68
2023-02-16T10:05:35.794Z,7.27
2023-02-16T10:08:10.163Z,7.20
2023-02-16T10:11:01.988Z,8.13
2023-02-16T10:13:47.202Z,8.30
2023-02-16T10:16:29.819Z,7.65
2023-02-16T10:19:00.369Z,7.43
2023-02-16T10:21:31.337Z,7.82
2023-02-16T10:24:02.711Z,7.65
2023-02-16T10:26:41.868Z,7.45
2023-02-16T10:29:14.418Z,7.93
2023-02-16T10:31:48.363Z,7.90
2023-02-16T10:34:49.165Z,7.40
2023-02-16T10:37:34.157Z,7.30
2023-02-16T10:40:18.608Z,7.47
2023-02-16T10:43:15.628Z,7.95
2023-02-16T10:46:00.788Z,7.03
2023-02-16T10:48:27.589Z,7.28
2023-02-16T10:51:02.208Z,7.63
2023-02-16T10:53:31.797Z,7.60
2023-02-16T10:55:59.641Z,7.53
2023-02-16T10:58:30.956Z,7.00
2023-02-16T11:01:19.017Z,7.55
2023-02-16T11:03:49.203Z,7.40
2023-02-16T11:06:25.543Z,6.63
2023-02-16T11:08:56.541Z,7.15
2023-02-16T11:11:47.710Z,7.30
2023-02-16T11:14:30.498Z,8.02
2023-02-16T11:17:12.165Z,7.90
2023-02-16T11:19:47.473Z,7.95
2023-02-16T11:22:29.932Z,7.35
2023-02-16T11:24:59.362Z,7.37
2023-02-16T11:27:26.290Z,8.10
2023-02-16T11:30:24.132Z,8.07
2023-02-16T11:32:51.720Z,8.07
2023-02-16T11:35:19.032Z,6.88
2023-02-16T11:37:46.396Z,8.03
2023-02-16T11:40:31.728Z,7.45
2023-02-16T11:43:01.305Z,8.32
2023-02-16T11:45:36.514Z,7.72
2023-02-16T11:48:12.254Z,7.50
2023-02-16T11:50:54.652Z,7.50
2023-02-16T11:53:52.151Z,7.30
2023-02-16T11:56:28.316Z,8.15
2023-02-16T11:59:12.760Z,7.63
2023-02-16T12:01:51.337Z,8.55
2023-02-16T12:04:20.803Z,7.50
2023-02-16T12:07:06.242Z,8.23
2023-02-16T12:09:56.979Z,8.73
2023-02-16T12:12:50.813Z,8.23
2023-02-16T12:15:27.497Z,7.72
2023-02-16T12:18:03.388Z,8.13
2023-02-16T12:21:06.919Z,7.68
2023-02-16T12:23:39.418Z,7.60
2023-02-16T12:26:34.078Z,8.98
2023-02-16T12:29:08.754Z,9.00
2023-02-16T12:31:53.161Z,8.07
2023-02-16T12:34:39.007Z,7.93
2023-02-16T12:37:20.888Z,8.50
2023-02-16T12:39:47.420Z,8.40
2023-02-16T12:42:23.116Z,10.85
2023-02-16T12:44:54.983Z,8.93
2023-02-16T12:47:34.053Z,9.52
2023-02-16T12:50:16.946Z,9.15
2023-02-16T12:53:08.587Z,8.48
2023-02-16T12:55:59.267Z,7.82
2023-02-16T12:58:31.934Z,8.00
2023-02-16T13:01:05.132Z,7.47
2023-02-16T13:03:40.358Z,8.63
2023-02-16T13:06:11.256Z,7.30
2023-02-16T13:09:16.166Z,8.77
2023-02-16T13:11:50.539Z,10.07
2023-02-16T13:14:21.752Z,8.18
2023-02-16T13:16:59.775Z,8.38
2023-02-16T13:19:26.976Z,7.22
2023-02-16T13:21:53.481Z,8.15
2023-02-16T13:24:42.349Z,8.50
2023-02-16T13:27:14.740Z,7.07
2023-02-16T13:29:54.776Z,7.85
2023-02-16T13:32:22.614Z,8.13
2023-02-16T13:35:10.497Z,8.05
2023-02-16T13:38:00.193Z,8.00
2023-02-16T13:40:41.919Z,8.57
2023-02-16T13:43:11.543Z,7.55
2023-02-16T13:45:43.194Z,8.27
2023-02-16T13:48:33.627Z,6.82
2023-02-16T13:51:03.819Z,10.10
2023-02-16T13:53:37.882Z,9.60
2023-02-16T13:56:32.301Z,9.35
2023-02-16T13:59:55.419Z,8.73
2023-02-16T14:02:52.539Z,9.60
2023-02-16T14:05:25.178Z,7.23
2023-02-16T14:08:19.648Z,8.15
2023-02-16T14:10:55.330Z,7.90
2023-02-16T14:13:31.785Z,8.00
2023-02-16T14:16:08.162Z,7.53
2023-02-16T14:18:43.690Z,7.87
2023-02-16T14:21:41.181Z,7.50
2023-02-16T14:24:13.624Z,9.18
2023-02-16T14:27:04.062Z,7.38
2023-02-16T14:29:37.369Z,8.82
2023-02-16T14:32:23.512Z,8.50
2023-02-16T14:34:57.333Z,8.65
2023-02-16T14:37:44.492Z,8.02
2023-02-16T14:40:18.273Z,10.30
2023-02-16T14:42:52.382Z,7.35
2023-02-16T14:45:58.776Z,8.13
2023-02-16T14:48:48.505Z,7.40
2023-02-16T14:51:44.320Z,7.43
2023-02-16T14:55:03.270Z,7.15
2023-02-16T14:58:14.283Z,7.50
2023-02-16T15:00:45.962Z,8.03
2023-02-16T15:03:23.129Z,8.07
2023-02-16T15:05:57.859Z,7.35
2023-02-16T15:08:34.931Z,9.10
2023-02-16T15:11:11.633Z,7.80
2023-02-16T15:13:38.872Z,7.80
2023-02-16T15:16:06.701Z,7.68
2023-02-16T15:18:38.437Z,9.05
2023-02-16T15:21:05.219Z,7.78
2023-02-16T15:23:34.773Z,8.05
2023-02-16T15:26:06.155Z,6.70
2023-02-16T15:28:38.658Z,7.22
2023-02-16T15:31:18.195Z,7.85
2023-02-16T15:33:53.823Z,8.82
2023-02-16T15:36:24.495Z,7.68
2023-02-16T15:39:02.734Z,9.23
2023-02-16T15:41:33.084Z,8.63
2023-02-16T15:44:02.475Z,8.40
2023-02-16T15:46:37.321Z,9.95
2023-02-16T15:49:27.618Z,9.07
2023-02-16T15:51:56.757Z,8.57
2023-02-16T15:54:32.088Z,8.45
2023-02-16T15:57:15.804Z,8.10
2023-02-16T15:59:59.973Z,8.82
2023-02-16T16:02:33.260Z,9.15
2023-02-16T16:05:02.566Z,10.77
2023-02-16T16:07:39.863Z,7.72
2023-02-16T16:10:20.684Z,7.00
2023-02-16T16:12:50.174Z,9.40
2023-02-16T16:15:23.119Z,7.65
2023-02-16T16:17:52.099Z,7.07
2023-02-16T16:20:29.401Z,8.15
2023-02-16T16:23:26.978Z,8.10
2023-02-16T16:25:54.527Z,7.65
2023-02-16T16:28:29.735Z,8.25
2023-02-16T16:31:14.625Z,8.20
2023-02-16T16:33:56.334Z,7.28
2023-02-16T16:36:36.882Z,8.57
2023-02-16T16:39:18.803Z,8.88
2023-02-16T16:42:18.992Z,8.05
2023-02-16T16:45:06.981Z,6.70
2023-02-16T16:47:39.609Z,8.27
2023-02-16T16:50:14.373Z,7.30
2023-02-16T16:52:51.481Z,7.93
2023-02-16T16:55:21.535Z,7.63
2023-02-16T16:57:50.568Z,7.37
2023-02-16T17:00:18.249Z,7.65
2023-02-16T17:02:45.011Z,8.75
2023-02-16T17:05:12.093Z,10.25
2023-02-16T17:07:38.897Z,7.72
2023-02-16T17:10:06.226Z,8.90
2023-02-16T17:12:33.208Z,10.52
2023-02-16T17:15:03.804Z,8.52
2023-02-16T17:17:31.394Z,9.90
2023-02-16T17:19:57.966Z,8.73
2023-02-16T17:22:24.497Z,8.23
2023-02-16T17:24:51.060Z,10.30
2023-02-16T17:27:17.598Z,8.82
2023-02-16T17:29:46.518Z,9.23
2023-02-16T17:32:13.247Z,8.32
2023-02-16T17:34:39.886Z,8.37
2023-02-16T17:37:09.686Z,9.50
2023-02-16T17:39:36.500Z,10.30
2023-02-16T17:42:03.353Z,7.60
2023-02-16T17:44:30.005Z,9.38
2023-02-16T17:46:56.813Z,10.27
2023-02-16T17:49:23.765Z,10.68
2023-02-16T17:51:50.591Z,8.60
2023-02-16T17:54:17.150Z,7.93
2023-02-16T17:56:45.756Z,7.40
2023-02-16T17:59:15.298Z,7.83
2023-02-16T18:01:45.427Z,8.85
2023-02-16T18:04:12.080Z,9.27
2023-02-16T18:06:38.668Z,9.05
2023-02-16T18:09:05.259Z,9.02
2023-02-16T18:11:31.850Z,10.13
2023-02-16T18:13:58.419Z,8.90
2023-02-16T18:16:27.516Z,9.15
2023-02-16T18:18:54.718Z,9.18
2023-02-16T18:21:21.288Z,9.27
2023-02-16T18:23:47.815Z,8.33
2023-02-16T18:26:16.541Z,9.60
2023-02-16T18:28:43.965Z,10.07
2023-02-16T18:31:10.775Z,9.98
2023-02-16T18:33:37.586Z,9.18
2023-02-16T18:36:06.215Z,8.37
2023-02-16T18:38:33.052Z,10.23
2023-02-16T18:40:59.611Z,9.20
2023-02-16T18:43:26.422Z,8.90
2023-02-16T18:45:53.074Z,9.02
2023-02-16T18:48:19.660Z,9.73
2023-02-16T18:50:46.230Z,8.82
2023-02-16T18:53:12.817Z,8.98
2023-02-16T18:55:47.356Z,8.85
2023-02-16T18:58:14.582Z,9.35
2023-02-16T19:00:41.258Z,10.30
2023-02-16T19:03:08.212Z,9.50
2023-02-16T19:05:34.998Z,10.45
2023-02-16T19:08:01.710Z,10.10
2023-02-16T19:10:28.313Z,9.40
2023-02-16T19:12:54.902Z,9.45
2023-02-16T19:15:21.609Z,9.20
2023-02-16T19:17:48.707Z,10.27
2023-02-16T19:20:18.662Z,8.85
2023-02-16T19:22:49.216Z,9.10
2023-02-16T19:25:16.018Z,9.20
2023-02-16T19:27:43.718Z,9.35
2023-02-16T19:30:11.500Z,12.07
2023-02-16T19:32:41.109Z,9.40
2023-02-16T19:35:11.919Z,9.35
2023-02-16T19:37:38.531Z,9.77
2023-02-16T19:40:10.332Z,9.65
2023-02-16T19:42:38.158Z,9.73
2023-02-16T19:45:05.118Z,9.38
2023-02-16T19:47:31.679Z,10.57
2023-02-16T19:49:58.268Z,10.65
2023-02-16T19:52:25.004Z,9.75
2023-02-16T19:54:51.591Z,8.80
2023-02-16T19:57:18.298Z,10.10
2023-02-16T19:59:44.886Z,9.02
2023-02-16T20:02:12.215Z,9.90
2023-02-16T20:04:38.773Z,10.02
2023-02-16T20:07:05.806Z,10.20
2023-02-16T20:09:32.345Z,9.05
2023-02-16T20:11:59.048Z,8.30
2023-02-16T20:14:25.631Z,11.48
2023-02-16T20:16:52.196Z,10.27
2023-02-16T20:19:18.774Z,10.85
2023-02-16T20:21:46.823Z,8.70
2023-02-16T20:24:13.924Z,10.25
2023-02-16T20:26:44.685Z,10.60
2023-02-16T20:29:14.986Z,8.80
2023-02-16T20:31:54.309Z,10.43
2023-02-16T20:34:21.952Z,10.90
2023-02-16T20:36:48.604Z,10.23
2023-02-16T20:39:15.773Z,9.20
2023-02-16T20:41:42.432Z,9.38
2023-02-16T20:44:09.984Z,9.90
2023-02-16T20:46:38.472Z,8.95
2023-02-16T20:49:05.171Z,9.18
2023-02-16T20:51:31.879Z,9.15
2023-02-16T20:54:00.428Z,8.13
2023-02-16T20:56:28.771Z,8.88
2023-02-16T20:58:57.229Z,8.73
2023-02-16T21:01:37.306Z,8.85
2023-02-16T21:04:04.655Z,8.75
2023-02-16T21:06:31.374Z,7.85
2023-02-16T21:08:58.343Z,9.50
2023-02-16T21:11:25.663Z,10.13
2023-02-16T21:13:52.295Z,9.95
2023-02-16T21:16:19.186Z,8.77
2023-02-16T21:18:45.867Z,8.15
2023-02-16T21:21:15.635Z,9.73
2023-02-16T21:23:44.517Z,8.15
2023-02-16T21:26:11.544Z,8.00
2023-02-16T21:28:38.275Z,10.13
2023-02-16T21:31:08.134Z,8.90
2023-02-16T21:33:34.710Z,9.13
2023-02-16T21:36:31.452Z,9.30
2023-02-16T21:38:58.036Z,9.15
2023-02-16T21:41:29.219Z,7.97
2023-02-16T21:44:08.675Z,8.93
2023-02-16T21:46:41.262Z,8.90
2023-02-16T21:49:13.492Z,9.27
2023-02-16T21:51:41.527Z,8.55
2023-02-16T21:54:14.596Z,8.85
2023-02-16T21:56:42.773Z,8.57
2023-02-16T21:59:12.028Z,8.95
2023-02-16T22:01:42.633Z,8.38
2023-02-16T22:04:12.663Z,9.13
2023-02-16T22:06:41.861Z,8.02
2023-02-16T22:09:11.153Z,8.77
2023-02-16T22:11:38.064Z,8.82
2023-02-16T22:14:05.094Z,9.07
2023-02-16T22:16:33.552Z,8.95
2023-02-16T22:19:04.955Z,9.13
2023-02-16T22:21:35.508Z,8.00
2023-02-16T22:24:02.104Z,8.15
2023-02-16T22:26:31.453Z,9.10
2023-02-16T22:28:58.709Z,8.50
2023-02-16T22:31:27.509Z,9.35
2023-02-16T22:33:59.218Z,10.75
2023-02-16T22:36:26.054Z,8.48
2023-02-16T22:38:53.597Z,8.80
2023-02-16T22:41:20.867Z,10.10
2023-02-16T22:43:47.913Z,9.15
2023-02-16T22:46:17.285Z,9.20
2023-02-16T22:48:44.634Z,9.00
2023-02-16T22:51:13.657Z,8.18
2023-02-16T22:53:40.238Z,8.68
2023-02-16T22:56:08.662Z,8.43
2023-02-16T22:58:35.915Z,9.07
2023-02-16T23:01:02.871Z,9.00
2023-02-16T23:03:30.103Z,10.40
2023-02-16T23:05:56.660Z,8.48
2023-02-16T23:08:23.503Z,9.23
2023-02-16T23:11:02.165Z,9.25
2023-02-16T23:13:31.082Z,8.73
2023-02-16T23:16:02.429Z,8.70
2023-02-16T23:18:29.062Z,9.20
2023-02-16T23:20:55.589Z,9.27
2023-02-16T23:23:22.180Z,8.23
2023-02-16T23:25:50.002Z,9.23
2023-02-16T23:28:16.618Z,9.38
2023-02-16T23:30:45.385Z,10.65
2023-02-16T23:33:13.133Z,8.48
2023-02-16T23:35:41.309Z,8.50
2023-02-16T23:38:11.486Z,9.85
2023-02-16T23:40:38.064Z,10.23
2023-02-16T23:43:04.649Z,9.00
2023-02-16T23:45:31.209Z,9.52
2023-02-16T23:47:57.818Z,8.55
2023-02-16T23:50:24.390Z,9.27
2023-02-16T23:52:50.933Z,9.25
2023-02-16T23:55:17.734Z,9.00
2023-02-16T23:57:44.356Z,9.07
